Rome, Mississippi
Current Conditions -  °F | °C
As of 3:55 PM on Sunday 28 Dec 2014 (Local Time) from KRNV Reporting Station
Drizzle Drizzle  
Wind Chill: 36°   Ceiling: 900
Heat Index: 42°   Visibility: 10mi
Dew Point: 41°   Wind: 9mph
Humidity: 97%   Direction: 360°N
Pressure: 30.15"   Gusts: NA
Location:  33.96°N, 90.48°W
Report Text: KRNV 282155Z AUTO 36008KT 10SM -DZ OVC009 06/05 A3015 RMK AO2 T00550051
Loading
Personal Weather Stations






























Interactive Weather Map New forecast layout! Learn more

10-Day Weather Forecast

Advertisements
Track Severe Weather on mobile